createdAt,value
2017-03-29T00:00:48.086Z,14.14
2017-03-29T00:01:47.820Z,14.06
2017-03-29T00:02:47.865Z,14.12
2017-03-29T00:03:47.895Z,14.06
2017-03-29T00:04:48.538Z,14.06
2017-03-29T00:05:47.974Z,13.99
2017-03-29T00:06:48.017Z,14.07
2017-03-29T00:07:48.053Z,14.06
2017-03-29T00:08:48.087Z,14.02
2017-03-29T00:09:48.125Z,14.04
2017-03-29T00:10:48.163Z,13.98
2017-03-29T00:11:48.198Z,14.09
2017-03-29T00:12:48.242Z,14.02
2017-03-29T00:13:48.279Z,14.02
2017-03-29T00:14:48.313Z,14.07
2017-03-29T00:15:48.358Z,14.07
2017-03-29T00:16:48.388Z,14.01
2017-03-29T00:17:48.770Z,14.04
2017-03-29T00:18:48.695Z,13.99
2017-03-29T00:19:48.504Z,14.04
2017-03-29T00:20:48.543Z,13.99
2017-03-29T00:21:48.891Z,14.07
2017-03-29T00:22:48.617Z,14.04
2017-03-29T00:23:48.653Z,13.99
2017-03-29T00:24:48.702Z,14.1
2017-03-29T00:25:48.739Z,14.14
2017-03-29T00:26:48.769Z,14.06
2017-03-29T00:27:49.114Z,14.02
2017-03-29T00:28:48.852Z,14.06
2017-03-29T00:29:49.194Z,14.06
2017-03-29T00:30:48.928Z,14.07
2017-03-29T00:31:48.970Z,14.13
2017-03-29T00:32:49.010Z,13.99
2017-03-29T00:33:49.039Z,14.01
2017-03-29T00:34:49.087Z,14.04
2017-03-29T00:35:49.123Z,13.91
2017-03-29T00:36:49.152Z,14.01
2017-03-29T00:37:49.532Z,13.98
2017-03-29T00:38:49.232Z,13.96
2017-03-29T00:39:49.270Z,14.02
2017-03-29T00:40:49.302Z,13.94
2017-03-29T00:41:49.351Z,13.92
2017-03-29T00:42:49.385Z,13.94
2017-03-29T00:43:49.426Z,13.8
2017-03-29T00:44:49.459Z,13.79
2017-03-29T00:45:49.499Z,13.83
2017-03-29T00:46:49.538Z,13.77
2017-03-29T00:47:49.572Z,13.79
2017-03-29T00:48:49.620Z,13.74
2017-03-29T00:49:49.957Z,13.74
2017-03-29T00:50:49.686Z,13.7
2017-03-29T00:51:50.027Z,13.67
2017-03-29T00:52:49.777Z,13.71
2017-03-29T00:53:49.801Z,13.65
2017-03-29T00:54:49.833Z,13.63
2017-03-29T00:55:49.877Z,13.63
2017-03-29T00:56:50.222Z,13.69
2017-03-29T00:57:49.956Z,13.58
2017-03-29T00:58:50.018Z,13.65
2017-03-29T00:59:50.026Z,13.56
2017-03-29T01:00:50.064Z,13.54
2017-03-29T01:01:50.102Z,13.58
2017-03-29T01:02:50.138Z,13.59
2017-03-29T01:03:50.176Z,13.59
2017-03-29T01:04:50.212Z,13.56
2017-03-29T01:05:50.252Z,13.54
2017-03-29T01:06:50.294Z,13.49
2017-03-29T01:07:50.631Z,13.59
2017-03-29T01:08:50.361Z,13.51
2017-03-29T01:09:50.407Z,13.54
2017-03-29T01:10:50.443Z,13.58
2017-03-29T01:11:50.783Z,13.52
2017-03-29T01:12:50.515Z,13.56
2017-03-29T01:13:50.562Z,13.59
2017-03-29T01:14:50.597Z,13.47
2017-03-29T01:15:50.635Z,13.55
2017-03-29T01:16:50.672Z,13.54
2017-03-29T01:17:50.704Z,13.59
2017-03-29T01:18:50.743Z,13.56
2017-03-29T01:19:51.088Z,13.52
2017-03-29T01:20:50.827Z,13.52
2017-03-29T01:21:51.167Z,13.54
2017-03-29T01:22:50.898Z,13.52
2017-03-29T01:23:50.960Z,13.55
2017-03-29T01:24:50.970Z,13.54
2017-03-29T01:25:51.012Z,13.54
2017-03-29T01:26:51.045Z,13.59
2017-03-29T01:27:51.085Z,13.58
2017-03-29T01:28:51.433Z,13.56
2017-03-29T01:29:51.173Z,13.62
2017-03-29T01:30:51.206Z,13.52
2017-03-29T01:31:51.246Z,13.56
2017-03-29T01:32:51.282Z,13.56
2017-03-29T01:33:51.321Z,13.47
2017-03-29T01:34:51.353Z,13.49
2017-03-29T01:35:51.392Z,13.47
2017-03-29T01:36:51.458Z,13.55
2017-03-29T01:37:51.771Z,13.49
2017-03-29T01:38:51.502Z,13.46
2017-03-29T01:39:51.545Z,13.41
2017-03-29T01:40:51.577Z,13.36
2017-03-29T01:41:51.920Z,13.41
2017-03-29T01:42:51.659Z,13.44
2017-03-29T01:43:51.693Z,13.44
2017-03-29T01:44:52.041Z,13.43
2017-03-29T01:45:51.782Z,13.47
2017-03-29T01:46:51.812Z,13.47
2017-03-29T01:47:51.852Z,13.56
2017-03-29T01:48:51.888Z,13.55
2017-03-29T01:49:51.922Z,13.52
2017-03-29T01:50:51.957Z,13.54
2017-03-29T01:51:51.997Z,13.56
2017-03-29T01:52:52.033Z,13.49
2017-03-29T01:53:52.076Z,13.52
2017-03-29T01:54:52.112Z,13.55
2017-03-29T01:55:52.151Z,13.52
2017-03-29T01:56:52.487Z,13.54
2017-03-29T01:57:52.221Z,13.56
2017-03-29T01:58:52.262Z,13.58
2017-03-29T01:59:52.304Z,13.56
2017-03-29T02:00:52.367Z,13.55
2017-03-29T02:01:52.683Z,13.59
2017-03-29T02:02:52.418Z,13.54
2017-03-29T02:03:52.455Z,13.54
2017-03-29T02:04:52.492Z,13.54
2017-03-29T02:05:52.529Z,13.55
2017-03-29T02:06:52.567Z,13.52
2017-03-29T02:07:52.604Z,13.56
2017-03-29T02:08:52.649Z,13.54
2017-03-29T02:09:52.680Z,13.52
2017-03-29T02:10:52.718Z,13.47
2017-03-29T02:11:52.759Z,13.54
2017-03-29T02:12:52.793Z,13.47
2017-03-29T02:13:52.840Z,13.47
2017-03-29T02:14:52.866Z,13.47
2017-03-29T02:15:52.909Z,13.49
2017-03-29T02:16:52.953Z,13.49
2017-03-29T02:17:52.985Z,13.51
2017-03-29T02:18:53.020Z,13.49
2017-03-29T02:19:53.058Z,13.38
2017-03-29T02:20:53.097Z,13.4
2017-03-29T02:21:53.149Z,13.37
2017-03-29T02:22:53.176Z,13.4
2017-03-29T02:23:53.213Z,13.41
2017-03-29T02:24:53.251Z,13.22
2017-03-29T02:25:53.284Z,13.29
2017-03-29T02:26:53.325Z,13.3
2017-03-29T02:27:53.665Z,13.32
2017-03-29T02:28:53.399Z,13.21
2017-03-29T02:29:53.437Z,13.25
2017-03-29T02:30:53.482Z,13.25
2017-03-29T02:31:53.812Z,13.21
2017-03-29T02:32:53.550Z,13.27
2017-03-29T02:33:53.586Z,13.22
2017-03-29T02:34:53.622Z,13.2
2017-03-29T02:35:53.668Z,13.22
2017-03-29T02:36:53.698Z,13.2
2017-03-29T02:37:54.043Z,13.3
2017-03-29T02:38:54.079Z,13.18
2017-03-29T02:39:53.818Z,13.21
2017-03-29T02:40:53.853Z,13.32
2017-03-29T02:41:53.888Z,13.25
2017-03-29T02:42:53.925Z,13.18
2017-03-29T02:43:53.965Z,13.21
2017-03-29T02:44:54.002Z,13.21
2017-03-29T02:45:54.046Z,13.22
2017-03-29T02:46:54.379Z,13.15
2017-03-29T02:47:54.116Z,13.18
2017-03-29T02:48:54.155Z,13.17
2017-03-29T02:49:54.497Z,13.07
2017-03-29T02:50:54.547Z,13.15
2017-03-29T02:51:54.573Z,13.24
2017-03-29T02:52:54.305Z,13.2
2017-03-29T02:53:54.345Z,13.17
2017-03-29T02:54:54.682Z,13.17
2017-03-29T02:55:54.420Z,13.18
2017-03-29T02:56:54.455Z,13.17
2017-03-29T02:57:54.795Z,13.17
2017-03-29T02:58:54.532Z,13.17
2017-03-29T02:59:54.869Z,13.24
2017-03-29T03:00:54.605Z,13.22
2017-03-29T03:01:54.648Z,13.17
2017-03-29T03:02:54.984Z,13.22
2017-03-29T03:03:54.718Z,13.21
2017-03-29T03:04:54.758Z,13.33
2017-03-29T03:05:54.793Z,13.21
2017-03-29T03:06:54.833Z,13.22
2017-03-29T03:07:54.876Z,13.25
2017-03-29T03:08:55.206Z,13.17
2017-03-29T03:09:55.247Z,13.18
2017-03-29T03:10:54.982Z,13.18
2017-03-29T03:11:55.020Z,13.22
2017-03-29T03:12:55.059Z,13.14
2017-03-29T03:13:55.101Z,13.25
2017-03-29T03:14:55.137Z,13.15
2017-03-29T03:15:55.183Z,13.15
2017-03-29T03:16:55.211Z,13.17
2017-03-29T03:17:55.249Z,13.06
2017-03-29T03:18:55.288Z,13.14
2017-03-29T03:19:55.354Z,13.14
2017-03-29T03:20:55.370Z,13.15
2017-03-29T03:21:55.703Z,13.11
2017-03-29T03:22:55.435Z,13.22
2017-03-29T03:23:55.471Z,13.12
2017-03-29T03:24:55.510Z,13.12
2017-03-29T03:25:55.546Z,13.21
2017-03-29T03:26:55.587Z,13.24
2017-03-29T03:27:55.626Z,13.25
2017-03-29T03:28:55.661Z,13.18
2017-03-29T03:29:55.696Z,13.12
2017-03-29T03:30:55.735Z,13.21
2017-03-29T03:31:55.771Z,13.25
2017-03-29T03:32:55.808Z,13.17
2017-03-29T03:33:55.844Z,13.15
2017-03-29T03:34:55.886Z,13.15
2017-03-29T03:35:55.920Z,13.15
2017-03-29T03:36:55.964Z,13.14
2017-03-29T03:37:55.996Z,13.09
2017-03-29T03:38:56.344Z,13.09
2017-03-29T03:39:56.379Z,13.09
2017-03-29T03:40:56.115Z,13.14
2017-03-29T03:41:56.158Z,12.97
2017-03-29T03:42:56.490Z,12.96
2017-03-29T03:43:56.223Z,12.97
2017-03-29T03:44:56.256Z,13.04
2017-03-29T03:45:56.294Z,13.03
2017-03-29T03:46:56.336Z,12.95
2017-03-29T03:47:56.375Z,12.99
2017-03-29T03:48:56.415Z,12.95
2017-03-29T03:49:56.757Z,12.93
2017-03-29T03:50:56.484Z,12.85
2017-03-29T03:51:56.529Z,12.87
2017-03-29T03:52:56.561Z,12.82
2017-03-29T03:53:56.644Z,12.82
2017-03-29T03:54:56.633Z,12.78
2017-03-29T03:55:56.971Z,12.81
2017-03-29T03:56:56.712Z,12.75
2017-03-29T03:57:56.748Z,12.79
2017-03-29T03:58:56.801Z,12.75
2017-03-29T03:59:56.825Z,12.74
2017-03-29T04:00:56.857Z,12.69
2017-03-29T04:01:56.901Z,12.66
2017-03-29T04:02:56.942Z,12.7
2017-03-29T04:03:57.278Z,12.69
2017-03-29T04:04:57.011Z,12.6
2017-03-29T04:05:57.351Z,12.63
2017-03-29T04:06:57.088Z,12.54
2017-03-29T04:07:57.125Z,12.63
2017-03-29T04:08:57.158Z,12.54
2017-03-29T04:09:57.202Z,12.51
2017-03-29T04:10:57.237Z,12.52
2017-03-29T04:11:57.577Z,12.45
2017-03-29T04:12:57.302Z,12.49
2017-03-29T04:13:57.346Z,12.42
2017-03-29T04:14:57.382Z,12.52
2017-03-29T04:15:57.425Z,12.39
2017-03-29T04:16:57.458Z,12.42
2017-03-29T04:17:57.494Z,12.42
2017-03-29T04:18:57.834Z,12.42
2017-03-29T04:19:57.571Z,12.34
2017-03-29T04:20:57.608Z,12.29
2017-03-29T04:21:57.643Z,12.31
2017-03-29T04:22:57.683Z,12.26
2017-03-29T04:23:57.716Z,12.27
2017-03-29T04:24:57.756Z,12.34
2017-03-29T04:25:57.796Z,12.26
2017-03-29T04:26:57.827Z,12.29
2017-03-29T04:27:58.171Z,12.23
2017-03-29T04:28:57.907Z,12.19
2017-03-29T04:29:57.939Z,12.26
2017-03-29T04:30:57.982Z,12.21
2017-03-29T04:31:58.014Z,12.24
2017-03-29T04:32:58.062Z,12.16
2017-03-29T04:33:58.086Z,12.2
2017-03-29T04:34:58.125Z,12.19
2017-03-29T04:35:58.167Z,12.15
2017-03-29T04:36:58.207Z,12.2
2017-03-29T04:37:58.550Z,12.15
2017-03-29T04:38:58.271Z,12.21
2017-03-29T04:39:58.314Z,12.26
2017-03-29T04:40:58.356Z,12.19
2017-03-29T04:41:58.391Z,12.12
2017-03-29T04:42:58.421Z,12.16
2017-03-29T04:43:58.463Z,12.12
2017-03-29T04:44:58.497Z,12.23
2017-03-29T04:45:58.544Z,12.13
2017-03-29T04:46:58.572Z,12.16
2017-03-29T04:47:58.609Z,12.12
2017-03-29T04:48:58.651Z,12.16
2017-03-29T04:49:58.686Z,12.15
2017-03-29T04:50:58.723Z,12.11
2017-03-29T04:51:58.757Z,12.15
2017-03-29T04:52:58.812Z,12.09
2017-03-29T04:53:58.839Z,12.16
2017-03-29T04:54:58.873Z,12.21
2017-03-29T04:55:58.904Z,12.19
2017-03-29T04:56:59.249Z,12.13
2017-03-29T04:57:58.979Z,12.16
2017-03-29T04:58:59.014Z,12.12
2017-03-29T04:59:59.050Z,12.24
2017-03-29T05:00:59.093Z,12.2
2017-03-29T05:01:59.137Z,12.15
2017-03-29T05:02:59.165Z,12.12
2017-03-29T05:03:59.199Z,12.12
2017-03-29T05:04:59.538Z,12.24
2017-03-29T05:05:59.389Z,12.19
2017-03-29T05:06:59.308Z,12.15
2017-03-29T05:07:59.659Z,12.26
2017-03-29T05:08:59.384Z,12.27
2017-03-29T05:09:59.421Z,12.31
2017-03-29T05:10:59.457Z,12.37
2017-03-29T05:11:59.797Z,12.34
2017-03-29T05:12:59.536Z,12.44
2017-03-29T05:13:59.577Z,12.45
2017-03-29T05:14:59.611Z,12.46
2017-03-29T05:15:59.953Z,12.45
2017-03-29T05:16:59.684Z,12.52
2017-03-29T05:17:59.726Z,12.49
2017-03-29T05:18:59.755Z,12.54
2017-03-29T05:19:59.821Z,12.64
2017-03-29T05:20:59.836Z,12.6
2017-03-29T05:22:00.209Z,12.6
2017-03-29T05:22:59.907Z,12.66
2017-03-29T05:23:59.943Z,12.64
2017-03-29T05:25:01.022Z,12.81
2017-03-29T05:26:00.028Z,12.81
2017-03-29T05:27:00.053Z,12.81
2017-03-29T05:28:00.088Z,12.84
2017-03-29T05:29:00.129Z,12.92
2017-03-29T05:30:00.168Z,12.95
2017-03-29T05:31:00.222Z,12.95
2017-03-29T05:32:00.244Z,13.02
2017-03-29T05:33:00.282Z,13.12
2017-03-29T05:34:00.316Z,13.02
2017-03-29T05:35:00.354Z,13.2
2017-03-29T05:36:00.394Z,13.18
2017-03-29T05:37:00.432Z,13.21
2017-03-29T05:38:00.464Z,13.17
2017-03-29T05:39:00.510Z,13.25
2017-03-29T05:40:00.539Z,13.36
2017-03-29T05:41:00.579Z,13.37
2017-03-29T05:42:00.624Z,13.49
2017-03-29T05:43:00.661Z,13.49
2017-03-29T05:44:00.695Z,13.58
2017-03-29T05:45:00.735Z,13.55
2017-03-29T05:46:00.767Z,13.54
2017-03-29T05:47:00.812Z,13.59
2017-03-29T05:48:00.846Z,13.59
2017-03-29T05:49:00.882Z,13.67
2017-03-29T05:50:00.919Z,13.71
2017-03-29T05:51:01.295Z,13.71
2017-03-29T05:52:01.309Z,13.73
2017-03-29T05:53:01.338Z,13.71
2017-03-29T05:54:01.072Z,13.7
2017-03-29T05:55:01.109Z,13.7
2017-03-29T05:56:01.160Z,13.71
2017-03-29T05:57:01.495Z,13.76
2017-03-29T05:58:01.222Z,13.71
2017-03-29T05:59:01.263Z,13.65
2017-03-29T06:00:01.316Z,13.7
2017-03-29T06:01:01.344Z,13.7
2017-03-29T06:02:01.379Z,13.65
2017-03-29T06:03:01.415Z,13.73
2017-03-29T06:04:01.459Z,13.71
2017-03-29T06:05:01.494Z,13.73
2017-03-29T06:06:01.528Z,13.63
2017-03-29T06:07:01.569Z,13.69
2017-03-29T06:08:01.609Z,13.74
2017-03-29T06:09:01.649Z,13.67
2017-03-29T06:10:01.685Z,13.84
2017-03-29T06:11:01.730Z,13.79
2017-03-29T06:12:01.763Z,13.81
2017-03-29T06:13:01.801Z,13.84
2017-03-29T06:14:01.832Z,13.83
2017-03-29T06:15:01.871Z,13.87
2017-03-29T06:16:01.927Z,13.87
2017-03-29T06:17:01.950Z,13.91
2017-03-29T06:18:01.994Z,13.94
2017-03-29T06:19:02.815Z,13.94
2017-03-29T06:20:02.367Z,14.07
2017-03-29T06:21:02.129Z,14.07
2017-03-29T06:22:02.139Z,14.1
2017-03-29T06:23:02.178Z,14.1
2017-03-29T06:24:02.220Z,14.16
2017-03-29T06:25:02.252Z,14.16
2017-03-29T06:26:02.290Z,14.16
2017-03-29T06:27:02.337Z,14.12
2017-03-29T06:28:02.372Z,14.12
2017-03-29T06:29:02.712Z,14.12
2017-03-29T06:30:02.753Z,14.07
2017-03-29T06:31:02.482Z,14.1
2017-03-29T06:32:02.522Z,14.17
2017-03-29T06:33:02.559Z,14.13
2017-03-29T06:34:02.903Z,14.04
2017-03-29T06:35:02.955Z,14.04
2017-03-29T06:36:02.977Z,14.07
2017-03-29T06:37:02.716Z,13.98
2017-03-29T06:38:02.772Z,14.07
2017-03-29T06:39:02.786Z,14.01
2017-03-29T06:40:03.141Z,14.07
2017-03-29T06:41:02.864Z,14.04
2017-03-29T06:42:02.918Z,14.06
2017-03-29T06:43:03.249Z,14.07
2017-03-29T06:44:03.278Z,14.07
2017-03-29T06:45:03.023Z,14.07
2017-03-29T06:46:03.674Z,14.1
2017-03-29T06:47:03.094Z,14.07
2017-03-29T06:48:03.136Z,14.1
2017-03-29T06:49:03.170Z,14.02
2017-03-29T06:50:03.203Z,14.04
2017-03-29T06:51:03.552Z,14.09
2017-03-29T06:52:03.294Z,14.07
2017-03-29T06:53:03.623Z,14.09
2017-03-29T06:54:03.736Z,14.09
2017-03-29T06:55:03.432Z,14.09
2017-03-29T06:56:03.442Z,14.07
2017-03-29T06:57:03.480Z,14.1
2017-03-29T06:58:03.518Z,14.07
2017-03-29T06:59:03.551Z,14.13
2017-03-29T07:00:03.590Z,14.07
2017-03-29T07:01:03.627Z,14.14
2017-03-29T07:02:03.671Z,14.1
2017-03-29T07:03:03.717Z,14.16
2017-03-29T07:04:04.348Z,14.12
2017-03-29T07:05:04.364Z,14.12
2017-03-29T07:06:03.825Z,14.16
2017-03-29T07:07:03.857Z,14.19
2017-03-29T07:08:04.205Z,14.12
2017-03-29T07:09:04.233Z,14.21
2017-03-29T07:10:04.277Z,14.2
2017-03-29T07:11:04.021Z,14.14
2017-03-29T07:12:04.355Z,14.27
2017-03-29T07:13:04.085Z,14.21
2017-03-29T07:14:04.124Z,14.24
2017-03-29T07:15:04.166Z,14.29
2017-03-29T07:16:04.207Z,14.29
2017-03-29T07:17:04.241Z,14.34
2017-03-29T07:18:04.282Z,14.25
2017-03-29T07:19:04.620Z,14.24
2017-03-29T07:20:04.360Z,14.25
2017-03-29T07:21:04.393Z,14.32
2017-03-29T07:22:04.738Z,14.32
2017-03-29T07:23:04.468Z,14.29
2017-03-29T07:24:04.807Z,14.32
2017-03-29T07:25:04.851Z,14.39
2017-03-29T07:26:04.901Z,14.37
2017-03-29T07:27:04.624Z,14.34
2017-03-29T07:28:04.665Z,14.43
2017-03-29T07:29:04.726Z,14.49
2017-03-29T07:30:04.743Z,14.52
2017-03-29T07:31:05.082Z,14.62
2017-03-29T07:32:04.829Z,14.62
2017-03-29T07:33:04.870Z,14.84
2017-03-29T07:34:04.928Z,14.81
2017-03-29T07:35:04.934Z,14.91
2017-03-29T07:36:04.975Z,14.9
2017-03-29T07:37:05.058Z,14.95
2017-03-29T07:38:05.050Z,15.09
2017-03-29T07:39:05.090Z,15.08
2017-03-29T07:40:05.430Z,15.12
2017-03-29T07:41:05.170Z,15.13
2017-03-29T07:42:05.212Z,15.3
2017-03-29T07:43:05.257Z,15.35
2017-03-29T07:44:05.288Z,15.42
2017-03-29T07:45:05.642Z,15.33
2017-03-29T07:46:05.362Z,15.39
2017-03-29T07:47:05.409Z,15.33
2017-03-29T07:48:05.442Z,15.42
2017-03-29T07:49:05.480Z,15.27
2017-03-29T07:50:05.517Z,15.27
2017-03-29T07:51:05.561Z,15.21
2017-03-29T07:52:05.600Z,15.28
2017-03-29T07:53:05.642Z,15.23
2017-03-29T07:54:05.995Z,15.24
2017-03-29T07:55:05.727Z,15.12
2017-03-29T07:56:05.762Z,15.17
2017-03-29T07:57:07.512Z,15.19
2017-03-29T07:58:06.131Z,15.19
2017-03-29T07:59:05.874Z,15.26
2017-03-29T08:00:05.914Z,15.39
2017-03-29T08:01:05.949Z,15.49
2017-03-29T08:02:05.989Z,15.63
2017-03-29T08:03:06.032Z,15.64
2017-03-29T08:04:06.072Z,15.74
2017-03-29T08:05:06.134Z,15.76
2017-03-29T08:06:06.157Z,15.81
2017-03-29T08:07:06.213Z,15.86
2017-03-29T08:08:06.259Z,15.88
2017-03-29T08:09:06.268Z,16.18
2017-03-29T08:10:06.313Z,16.8
2017-03-29T08:11:06.653Z,17.32
2017-03-29T08:12:06.390Z,17.81
2017-03-29T08:13:06.748Z,18.06
2017-03-29T08:14:06.466Z,18.29
2017-03-29T08:15:06.819Z,18.76
2017-03-29T08:16:06.868Z,19.14
2017-03-29T08:17:06.622Z,19.78
2017-03-29T08:18:06.638Z,20.41
2017-03-29T08:19:06.685Z,20.99
2017-03-29T08:20:06.728Z,21.59
2017-03-29T08:21:06.764Z,22.2
2017-03-29T08:22:06.810Z,22.92
2017-03-29T08:23:06.871Z,23.49
2017-03-29T08:24:06.898Z,23.95
2017-03-29T08:25:07.245Z,24.35
2017-03-29T08:26:07.302Z,24.76
2017-03-29T08:27:07.034Z,25.25
2017-03-29T08:28:07.082Z,25.52
2017-03-29T08:29:07.148Z,25.98
2017-03-29T08:30:07.175Z,26.04
2017-03-29T08:31:07.219Z,26.11
2017-03-29T08:32:07.567Z,26.08
2017-03-29T08:33:07.611Z,26.12
2017-03-29T08:34:07.667Z,26.35
2017-03-29T08:35:07.407Z,26.59
2017-03-29T08:36:07.456Z,26.77
2017-03-29T08:37:07.508Z,26.79
2017-03-29T08:38:07.549Z,26.81
2017-03-29T08:39:07.604Z,27.14
2017-03-29T08:40:07.951Z,27.33
2017-03-29T08:41:07.995Z,27.62
2017-03-29T08:42:07.742Z,27.95
2017-03-29T08:43:07.798Z,28.04
2017-03-29T08:44:07.839Z,28.28
2017-03-29T08:45:08.188Z,28.46
2017-03-29T08:46:08.251Z,28.46
2017-03-29T08:47:07.979Z,28.38
2017-03-29T08:48:08.030Z,28.1
2017-03-29T08:49:08.410Z,27.82
2017-03-29T08:50:08.148Z,27.76
2017-03-29T08:51:08.198Z,27.84
2017-03-29T08:52:08.273Z,27.94
2017-03-29T08:53:08.288Z,27.86
2017-03-29T08:54:08.392Z,27.85
2017-03-29T08:55:08.738Z,27.86
2017-03-29T08:56:08.739Z,27.76
2017-03-29T08:57:08.530Z,27.82
2017-03-29T08:58:08.531Z,27.59
2017-03-29T08:59:09.284Z,27.43
2017-03-29T09:00:08.627Z,27.36
2017-03-29T09:01:08.681Z,27.36
2017-03-29T09:02:11.555Z,27.46
2017-03-29T09:03:10.523Z,27.53
2017-03-29T09:04:08.936Z,27.61
2017-03-29T09:05:09.633Z,27.77
2017-03-29T09:06:08.929Z,27.82
2017-03-29T09:07:09.284Z,27.82
2017-03-29T09:08:09.329Z,27.71
2017-03-29T09:09:09.104Z,27.77
2017-03-29T09:10:09.441Z,27.8
2017-03-29T09:11:09.186Z,27.79
2017-03-29T09:12:09.255Z,27.62
2017-03-29T09:13:09.580Z,27.57
2017-03-29T09:14:09.335Z,27.47
2017-03-29T09:15:09.398Z,27.46
2017-03-29T09:16:09.456Z,27.43
2017-03-29T09:17:09.490Z,27.64
2017-03-29T09:18:09.531Z,27.76
2017-03-29T09:19:09.882Z,27.79
2017-03-29T09:20:09.634Z,27.76
2017-03-29T09:21:09.687Z,27.86
2017-03-29T09:22:09.743Z,27.88
2017-03-29T09:23:09.804Z,28.06
2017-03-29T09:24:10.141Z,27.99
2017-03-29T09:25:10.200Z,27.95
2017-03-29T09:26:09.963Z,28.03
2017-03-29T09:27:10.006Z,28.07
2017-03-29T09:28:10.046Z,28.11
2017-03-29T09:29:10.096Z,28.11
2017-03-29T09:30:10.147Z,28.04
2017-03-29T09:31:10.515Z,27.79
2017-03-29T09:32:10.256Z,27.69
2017-03-29T09:33:10.308Z,27.51
2017-03-29T09:34:10.357Z,27.32
2017-03-29T09:35:10.404Z,27.29
2017-03-29T09:36:10.758Z,27.29
2017-03-29T09:37:10.516Z,27.26
2017-03-29T09:38:10.558Z,27.06
2017-03-29T09:39:10.659Z,27.04
2017-03-29T09:40:10.663Z,26.92
2017-03-29T09:41:10.725Z,26.95
2017-03-29T09:42:10.772Z,26.87
2017-03-29T09:43:11.126Z,26.89
2017-03-29T09:44:10.872Z,26.89
2017-03-29T09:45:10.928Z,27.06
2017-03-29T09:46:10.975Z,27.16
2017-03-29T09:47:11.033Z,27.14
2017-03-29T09:48:11.082Z,27.26
2017-03-29T09:49:11.181Z,27.06
2017-03-29T09:50:11.184Z,26.89
2017-03-29T09:51:11.241Z,26.84
2017-03-29T09:52:11.586Z,26.72
2017-03-29T09:53:11.341Z,26.43
2017-03-29T09:54:11.386Z,26.25
2017-03-29T09:55:11.442Z,26.06
2017-03-29T09:56:11.791Z,25.65
2017-03-29T09:57:11.604Z,25.34
2017-03-29T09:58:11.589Z,25.07
2017-03-29T09:59:11.640Z,25
2017-03-29T10:00:11.695Z,24.9
2017-03-29T10:01:11.746Z,24.87
2017-03-29T10:02:12.094Z,24.85
2017-03-29T10:03:11.838Z,24.9
2017-03-29T10:04:11.889Z,25.09
2017-03-29T10:05:11.939Z,25.09
2017-03-29T10:06:12.120Z,25.27
2017-03-29T10:07:12.047Z,25.28
2017-03-29T10:08:12.088Z,25.19
2017-03-29T10:09:12.146Z,25.05
2017-03-29T10:10:12.189Z,24.85
2017-03-29T10:11:12.241Z,24.54
2017-03-29T10:12:12.292Z,24.38
2017-03-29T10:13:12.633Z,24.17
2017-03-29T10:14:12.394Z,24.13
2017-03-29T10:15:12.438Z,23.89
2017-03-29T10:16:12.791Z,23.75
2017-03-29T10:17:12.533Z,23.6
2017-03-29T10:18:12.694Z,23.49
2017-03-29T10:19:12.929Z,23.27
2017-03-29T10:20:12.750Z,23.09
2017-03-29T10:21:12.725Z,22.84
2017-03-29T10:22:12.763Z,22.59
2017-03-29T10:23:12.806Z,22.41
2017-03-29T10:24:12.851Z,22.31
2017-03-29T10:25:13.210Z,22.29
2017-03-29T10:26:12.951Z,22.28
2017-03-29T10:27:12.988Z,22.28
2017-03-29T10:28:13.039Z,22.19
2017-03-29T10:29:13.086Z,22.2
2017-03-29T10:30:13.128Z,22.17
2017-03-29T10:31:13.176Z,22.19
2017-03-29T10:32:13.224Z,22.34
2017-03-29T10:33:13.268Z,22.37
2017-03-29T10:34:13.753Z,22.62
2017-03-29T10:35:13.367Z,22.64
2017-03-29T10:36:13.709Z,22.67
2017-03-29T10:37:13.456Z,22.68
2017-03-29T10:38:13.802Z,22.77
2017-03-29T10:39:13.546Z,22.78
2017-03-29T10:40:13.598Z,22.92
2017-03-29T10:41:13.641Z,22.93
2017-03-29T10:42:13.688Z,22.93
2017-03-29T10:43:13.741Z,23.17
2017-03-29T10:44:13.782Z,23.17
2017-03-29T10:45:13.841Z,23.23
2017-03-29T10:46:13.891Z,23.26
2017-03-29T10:47:13.944Z,23.47
2017-03-29T10:48:13.985Z,23.47
2017-03-29T10:49:14.037Z,23.61
2017-03-29T10:50:14.087Z,23.55
2017-03-29T10:51:14.132Z,23.5
2017-03-29T10:52:14.189Z,23.4
2017-03-29T10:53:14.234Z,23.46
2017-03-29T10:54:14.290Z,23.26
2017-03-29T10:55:14.337Z,23.12
2017-03-29T10:56:14.383Z,23.01
2017-03-29T10:57:14.431Z,22.87
2017-03-29T10:58:14.779Z,22.77
2017-03-29T10:59:14.880Z,22.67
2017-03-29T11:00:14.579Z,22.71
2017-03-29T11:01:14.927Z,22.65
2017-03-29T11:02:14.669Z,22.62
2017-03-29T11:03:15.048Z,22.62
2017-03-29T11:04:15.068Z,22.53
2017-03-29T11:05:14.814Z,22.5
2017-03-29T11:06:14.858Z,22.65
2017-03-29T11:07:14.904Z,22.49
2017-03-29T11:08:14.957Z,22.46
2017-03-29T11:09:14.995Z,22.54
2017-03-29T11:10:15.041Z,22.57
2017-03-29T11:11:15.111Z,22.43
2017-03-29T11:12:15.143Z,22.43
2017-03-29T11:13:15.184Z,22.25
2017-03-29T11:14:15.239Z,22.14
2017-03-29T11:15:15.276Z,21.95
2017-03-29T11:16:15.627Z,21.74
2017-03-29T11:17:15.666Z,21.56
2017-03-29T11:18:15.716Z,21.41
2017-03-29T11:19:15.459Z,21.42
2017-03-29T11:20:15.642Z,21.29
2017-03-29T11:21:15.849Z,21.36
2017-03-29T11:22:15.592Z,21.39
2017-03-29T11:23:15.936Z,21.41
2017-03-29T11:24:15.984Z,21.53
2017-03-29T11:25:15.730Z,21.61
2017-03-29T11:26:15.773Z,21.63
2017-03-29T11:27:15.817Z,21.61
2017-03-29T11:28:15.857Z,21.63
2017-03-29T11:29:15.905Z,21.63
2017-03-29T11:30:15.963Z,21.67
2017-03-29T11:31:15.996Z,21.69
2017-03-29T11:32:16.426Z,21.74
2017-03-29T11:33:16.087Z,21.67
2017-03-29T11:34:16.142Z,21.64
2017-03-29T11:35:16.177Z,21.81
2017-03-29T11:36:16.230Z,21.76
2017-03-29T11:37:16.285Z,21.83
2017-03-29T11:38:16.305Z,21.85
2017-03-29T11:39:16.355Z,21.81
2017-03-29T11:40:16.731Z,21.72
2017-03-29T11:41:16.749Z,21.67
2017-03-29T11:42:16.487Z,21.67
2017-03-29T11:43:16.534Z,21.66
2017-03-29T11:44:16.576Z,21.72
2017-03-29T11:45:16.624Z,21.74
2017-03-29T11:46:16.669Z,21.76
2017-03-29T11:47:16.751Z,21.71
2017-03-29T11:48:16.798Z,21.64
2017-03-29T11:49:16.811Z,21.64
2017-03-29T11:50:16.856Z,21.61
2017-03-29T11:51:16.901Z,21.66
2017-03-29T11:52:16.942Z,21.57
2017-03-29T11:53:17.284Z,21.6
2017-03-29T11:54:17.040Z,21.53
2017-03-29T11:55:17.090Z,21.61
2017-03-29T11:56:17.118Z,21.6
2017-03-29T11:57:17.159Z,21.6
2017-03-29T11:58:17.210Z,21.5
2017-03-29T11:59:17.251Z,21.48
2017-03-29T12:00:17.600Z,21.42
2017-03-29T12:01:17.673Z,21.19
2017-03-29T12:02:17.389Z,21.21
2017-03-29T12:03:17.435Z,21.21
2017-03-29T12:04:17.467Z,21.23
2017-03-29T12:05:17.851Z,21.23
2017-03-29T12:06:17.574Z,21.21
2017-03-29T12:07:17.623Z,21.21
2017-03-29T12:08:18.093Z,21.23
2017-03-29T12:09:17.706Z,21.2
2017-03-29T12:10:17.737Z,21.24
2017-03-29T12:11:17.786Z,21.17
2017-03-29T12:12:18.130Z,21.08
2017-03-29T12:13:17.865Z,21.11
2017-03-29T12:14:17.909Z,21.01
2017-03-29T12:15:18.107Z,21.04
2017-03-29T12:16:17.998Z,21.05
2017-03-29T12:17:18.043Z,21.05
2017-03-29T12:18:18.386Z,21.04
2017-03-29T12:19:18.131Z,21.05
2017-03-29T12:20:18.177Z,20.98
2017-03-29T12:21:18.532Z,21.02
2017-03-29T12:22:18.283Z,20.95
2017-03-29T12:23:18.307Z,20.9
2017-03-29T12:24:18.352Z,20.84
2017-03-29T12:25:18.392Z,20.84
2017-03-29T12:26:18.437Z,20.83
2017-03-29T12:27:18.477Z,20.84
2017-03-29T12:28:18.527Z,20.89
2017-03-29T12:29:18.564Z,20.9
2017-03-29T12:30:18.963Z,20.81
2017-03-29T12:31:19.055Z,20.84
2017-03-29T12:32:18.693Z,20.86
2017-03-29T12:33:19.058Z,20.9
2017-03-29T12:34:19.088Z,20.83
2017-03-29T12:35:18.835Z,20.71
2017-03-29T12:36:19.500Z,20.68
2017-03-29T12:37:18.903Z,20.56
2017-03-29T12:38:18.954Z,20.46
2017-03-29T12:39:18.999Z,20.35
2017-03-29T12:40:19.349Z,20.31
2017-03-29T12:41:19.124Z,20.23
2017-03-29T12:42:19.188Z,20.13
2017-03-29T12:43:19.241Z,20.02
2017-03-29T12:44:19.208Z,19.93
2017-03-29T12:45:19.328Z,20.03
2017-03-29T12:46:19.334Z,19.98
2017-03-29T12:47:19.743Z,19.9
2017-03-29T12:48:19.423Z,19.86
2017-03-29T12:49:19.422Z,19.79
2017-03-29T12:50:19.469Z,19.76
2017-03-29T12:51:19.921Z,19.83
2017-03-29T12:52:19.550Z,19.86
2017-03-29T12:53:19.583Z,19.93
2017-03-29T12:54:19.627Z,19.86
2017-03-29T12:55:19.673Z,19.8